sensor_id;sensor_type;location;lat;lon;timestamp;temperature;humidity
21167;DHT22;10741;52.272;9.580;2023-09-19T00:00:38;16.60;99.90
21167;DHT22;10741;52.272;9.580;2023-09-19T00:03:06;16.60;99.90
21167;DHT22;10741;52.272;9.580;2023-09-19T00:05:34;16.60;99.90
21167;DHT22;10741;52.272;9.580;2023-09-19T00:08:01;16.60;99.90
21167;DHT22;10741;52.272;9.580;2023-09-19T00:10:30;16.60;99.90
21167;DHT22;10741;52.272;9.580;2023-09-19T00:13:01;16.60;99.90
21167;DHT22;10741;52.272;9.580;2023-09-19T00:15:39;16.60;99.90
21167;DHT22;10741;52.272;9.580;2023-09-19T00:18:06;16.60;99.90
21167;DHT22;10741;52.272;9.580;2023-09-19T00:20:32;16.60;99.90
21167;DHT22;10741;52.272;9.580;2023-09-19T00:23:00;16.60;99.90
21167;DHT22;10741;52.272;9.580;2023-09-19T00:25:34;16.60;99.90
21167;DHT22;10741;52.272;9.580;2023-09-19T00:28:01;16.70;99.90
21167;DHT22;10741;52.272;9.580;2023-09-19T00:30:27;16.60;99.90
21167;DHT22;10741;52.272;9.580;2023-09-19T00:32:52;16.60;99.90
21167;DHT22;10741;52.272;9.580;2023-09-19T00:35:18;16.60;99.90
21167;DHT22;10741;52.272;9.580;2023-09-19T00:37:44;16.60;99.90
21167;DHT22;10741;52.272;9.580;2023-09-19T00:40:11;16.60;99.90
21167;DHT22;10741;52.272;9.580;2023-09-19T00:42:41;16.60;99.90
21167;DHT22;10741;52.272;9.580;2023-09-19T00:45:12;16.70;99.90
21167;DHT22;10741;52.272;9.580;2023-09-19T00:47:45;16.70;99.90
21167;DHT22;10741;52.272;9.580;2023-09-19T00:50:13;16.70;99.90
21167;DHT22;10741;52.272;9.580;2023-09-19T00:52:42;16.60;99.90
21167;DHT22;10741;52.272;9.580;2023-09-19T00:55:09;16.60;99.90
21167;DHT22;10741;52.272;9.580;2023-09-19T00:57:36;16.60;99.90
21167;DHT22;10741;52.272;9.580;2023-09-19T01:00:04;16.50;99.90
21167;DHT22;10741;52.272;9.580;2023-09-19T01:02:32;16.50;99.90
21167;DHT22;10741;52.272;9.580;2023-09-19T01:04:59;16.40;99.90
21167;DHT22;10741;52.272;9.580;2023-09-19T01:07:30;16.50;99.90
21167;DHT22;10741;52.272;9.580;2023-09-19T01:10:02;16.40;99.90
21167;DHT22;10741;52.272;9.580;2023-09-19T01:15:28;16.50;99.90
21167;DHT22;10741;52.272;9.580;2023-09-19T01:21:22;16.50;99.90
21167;DHT22;10741;52.272;9.580;2023-09-19T01:24:16;16.50;99.90
21167;DHT22;10741;52.272;9.580;2023-09-19T01:29:44;16.70;99.90
21167;DHT22;10741;52.272;9.580;2023-09-19T01:32:15;16.70;99.90
21167;DHT22;10741;52.272;9.580;2023-09-19T01:34:51;16.60;99.90
21167;DHT22;10741;52.272;9.580;2023-09-19T01:37:19;16.70;99.90
21167;DHT22;10741;52.272;9.580;2023-09-19T01:39:52;16.70;99.90
21167;DHT22;10741;52.272;9.580;2023-09-19T01:42:41;16.70;99.90
21167;DHT22;10741;52.272;9.580;2023-09-19T01:52:57;16.60;99.90
21167;DHT22;10741;52.272;9.580;2023-09-19T01:55:26;16.70;99.90
21167;DHT22;10741;52.272;9.580;2023-09-19T01:58:24;16.70;99.90
21167;DHT22;10741;52.272;9.580;2023-09-19T02:00:54;16.70;99.90
21167;DHT22;10741;52.272;9.580;2023-09-19T02:03:22;16.70;99.90
21167;DHT22;10741;52.272;9.580;2023-09-19T02:05:51;16.70;99.90
21167;DHT22;10741;52.272;9.580;2023-09-19T02:08:20;16.60;99.90
21167;DHT22;10741;52.272;9.580;2023-09-19T02:10:49;16.50;99.90
21167;DHT22;10741;52.272;9.580;2023-09-19T02:13:18;16.60;99.90
21167;DHT22;10741;52.272;9.580;2023-09-19T02:15:45;16.50;99.90
21167;DHT22;10741;52.272;9.580;2023-09-19T02:18:12;16.50;99.90
21167;DHT22;10741;52.272;9.580;2023-09-19T02:20:39;16.40;99.90
21167;DHT22;10741;52.272;9.580;2023-09-19T02:23:05;16.40;99.90
21167;DHT22;10741;52.272;9.580;2023-09-19T02:25:30;16.40;99.90
21167;DHT22;10741;52.272;9.580;2023-09-19T02:27:57;16.40;99.90
21167;DHT22;10741;52.272;9.580;2023-09-19T02:30:24;16.40;99.90
21167;DHT22;10741;52.272;9.580;2023-09-19T02:32:53;16.30;99.90
21167;DHT22;10741;52.272;9.580;2023-09-19T02:35:19;16.30;99.90
21167;DHT22;10741;52.272;9.580;2023-09-19T02:37:46;16.30;99.90
21167;DHT22;10741;52.272;9.580;2023-09-19T02:40:12;16.20;99.90
21167;DHT22;10741;52.272;9.580;2023-09-19T02:42:54;16.20;99.90
21167;DHT22;10741;52.272;9.580;2023-09-19T02:45:21;16.10;99.90
21167;DHT22;10741;52.272;9.580;2023-09-19T02:47:48;16.10;99.90
21167;DHT22;10741;52.272;9.580;2023-09-19T02:50:14;16.10;99.90
21167;DHT22;10741;52.272;9.580;2023-09-19T02:52:44;16.10;99.90
21167;DHT22;10741;52.272;9.580;2023-09-19T02:55:13;16.10;99.90
21167;DHT22;10741;52.272;9.580;2023-09-19T02:57:54;16.00;99.90
21167;DHT22;10741;52.272;9.580;2023-09-19T03:00:21;16.00;99.90
21167;DHT22;10741;52.272;9.580;2023-09-19T03:02:52;16.10;99.90
21167;DHT22;10741;52.272;9.580;2023-09-19T03:05:19;16.00;99.90
21167;DHT22;10741;52.272;9.580;2023-09-19T03:07:47;16.00;99.90
21167;DHT22;10741;52.272;9.580;2023-09-19T03:10:17;16.00;99.90
21167;DHT22;10741;52.272;9.580;2023-09-19T03:12:43;16.00;99.90
21167;DHT22;10741;52.272;9.580;2023-09-19T03:15:09;16.00;99.90
21167;DHT22;10741;52.272;9.580;2023-09-19T03:17:35;16.00;99.90
21167;DHT22;10741;52.272;9.580;2023-09-19T03:20:02;15.90;99.90
21167;DHT22;10741;52.272;9.580;2023-09-19T03:22:28;15.80;99.90
21167;DHT22;10741;52.272;9.580;2023-09-19T03:24:53;15.80;99.90
21167;DHT22;10741;52.272;9.580;2023-09-19T03:27:19;15.70;99.90
21167;DHT22;10741;52.272;9.580;2023-09-19T03:29:48;15.70;99.90
21167;DHT22;10741;52.272;9.580;2023-09-19T03:32:14;15.70;99.90
21167;DHT22;10741;52.272;9.580;2023-09-19T03:34:40;15.60;99.90
21167;DHT22;10741;52.272;9.580;2023-09-19T03:37:09;15.60;99.90
21167;DHT22;10741;52.272;9.580;2023-09-19T03:39:35;15.60;99.90
21167;DHT22;10741;52.272;9.580;2023-09-19T03:42:01;15.50;99.90
21167;DHT22;10741;52.272;9.580;2023-09-19T03:44:28;15.50;99.90
21167;DHT22;10741;52.272;9.580;2023-09-19T03:46:54;15.50;99.90
21167;DHT22;10741;52.272;9.580;2023-09-19T03:49:21;15.40;99.90
21167;DHT22;10741;52.272;9.580;2023-09-19T03:51:46;15.40;99.90
21167;DHT22;10741;52.272;9.580;2023-09-19T03:54:12;15.40;99.90
21167;DHT22;10741;52.272;9.580;2023-09-19T03:56:38;15.30;99.90
21167;DHT22;10741;52.272;9.580;2023-09-19T03:59:04;15.40;99.90
21167;DHT22;10741;52.272;9.580;2023-09-19T04:01:30;15.50;99.90
21167;DHT22;10741;52.272;9.580;2023-09-19T04:03:58;15.50;99.90
21167;DHT22;10741;52.272;9.580;2023-09-19T04:06:24;15.50;99.90
21167;DHT22;10741;52.272;9.580;2023-09-19T04:08:49;15.50;99.90
21167;DHT22;10741;52.272;9.580;2023-09-19T04:11:15;15.50;99.90
21167;DHT22;10741;52.272;9.580;2023-09-19T04:13:41;15.50;99.90
21167;DHT22;10741;52.272;9.580;2023-09-19T04:16:07;15.40;99.90
21167;DHT22;10741;52.272;9.580;2023-09-19T04:18:33;15.40;99.90
21167;DHT22;10741;52.272;9.580;2023-09-19T04:20:59;15.40;99.90
21167;DHT22;10741;52.272;9.580;2023-09-19T04:23:28;15.30;99.90
21167;DHT22;10741;52.272;9.580;2023-09-19T04:25:53;15.30;99.90
21167;DHT22;10741;52.272;9.580;2023-09-19T04:28:19;15.30;99.90
21167;DHT22;10741;52.272;9.580;2023-09-19T04:30:45;15.30;99.90
21167;DHT22;10741;52.272;9.580;2023-09-19T04:33:11;15.30;99.90
21167;DHT22;10741;52.272;9.580;2023-09-19T04:35:40;15.30;99.90
21167;DHT22;10741;52.272;9.580;2023-09-19T04:38:08;15.30;99.90
21167;DHT22;10741;52.272;9.580;2023-09-19T04:40:34;15.30;99.90
21167;DHT22;10741;52.272;9.580;2023-09-19T04:43:00;15.40;99.90
21167;DHT22;10741;52.272;9.580;2023-09-19T04:45:27;15.30;99.90
21167;DHT22;10741;52.272;9.580;2023-09-19T04:47:53;15.30;99.90
21167;DHT22;10741;52.272;9.580;2023-09-19T04:50:19;15.30;99.90
21167;DHT22;10741;52.272;9.580;2023-09-19T04:52:49;15.20;99.90
21167;DHT22;10741;52.272;9.580;2023-09-19T04:55:17;15.10;99.90
21167;DHT22;10741;52.272;9.580;2023-09-19T04:57:45;15.20;99.90
21167;DHT22;10741;52.272;9.580;2023-09-19T05:00:19;15.20;99.90
21167;DHT22;10741;52.272;9.580;2023-09-19T05:02:52;15.20;99.90
21167;DHT22;10741;52.272;9.580;2023-09-19T05:05:18;15.10;99.90
21167;DHT22;10741;52.272;9.580;2023-09-19T05:07:48;15.10;99.90
21167;DHT22;10741;52.272;9.580;2023-09-19T05:10:14;15.00;99.90
21167;DHT22;10741;52.272;9.580;2023-09-19T05:12:41;15.10;99.90
21167;DHT22;10741;52.272;9.580;2023-09-19T05:15:07;15.00;99.90
21167;DHT22;10741;52.272;9.580;2023-09-19T05:17:34;15.00;99.90
21167;DHT22;10741;52.272;9.580;2023-09-19T05:20:00;15.00;99.90
21167;DHT22;10741;52.272;9.580;2023-09-19T05:22:31;15.00;99.90
21167;DHT22;10741;52.272;9.580;2023-09-19T05:24:58;15.00;99.90
21167;DHT22;10741;52.272;9.580;2023-09-19T05:27:24;15.00;99.90
21167;DHT22;10741;52.272;9.580;2023-09-19T05:29:50;15.00;99.90
21167;DHT22;10741;52.272;9.580;2023-09-19T05:32:18;15.00;99.90
21167;DHT22;10741;52.272;9.580;2023-09-19T05:34:45;15.10;99.90
21167;DHT22;10741;52.272;9.580;2023-09-19T05:37:12;15.00;99.90
21167;DHT22;10741;52.272;9.580;2023-09-19T05:39:39;15.10;99.90
21167;DHT22;10741;52.272;9.580;2023-09-19T05:42:04;15.00;99.90
21167;DHT22;10741;52.272;9.580;2023-09-19T05:44:30;15.00;99.90
21167;DHT22;10741;52.272;9.580;2023-09-19T05:46:57;15.00;99.90
21167;DHT22;10741;52.272;9.580;2023-09-19T05:49:23;15.00;99.90
21167;DHT22;10741;52.272;9.580;2023-09-19T05:51:50;14.90;99.90
21167;DHT22;10741;52.272;9.580;2023-09-19T05:54:19;14.90;99.90
21167;DHT22;10741;52.272;9.580;2023-09-19T05:56:45;14.90;99.90
21167;DHT22;10741;52.272;9.580;2023-09-19T05:59:12;15.00;99.90
21167;DHT22;10741;52.272;9.580;2023-09-19T06:01:42;14.90;99.90
21167;DHT22;10741;52.272;9.580;2023-09-19T06:04:08;14.90;99.90
21167;DHT22;10741;52.272;9.580;2023-09-19T06:06:33;14.90;99.90
21167;DHT22;10741;52.272;9.580;2023-09-19T06:09:06;15.00;99.90
21167;DHT22;10741;52.272;9.580;2023-09-19T06:11:34;15.00;99.90
21167;DHT22;10741;52.272;9.580;2023-09-19T06:14:03;15.00;99.90
21167;DHT22;10741;52.272;9.580;2023-09-19T06:16:30;15.10;99.90
21167;DHT22;10741;52.272;9.580;2023-09-19T06:18:58;15.20;99.90
21167;DHT22;10741;52.272;9.580;2023-09-19T06:21:26;15.20;99.90
21167;DHT22;10741;52.272;9.580;2023-09-19T06:23:55;15.30;99.90
21167;DHT22;10741;52.272;9.580;2023-09-19T06:26:21;15.30;99.90
21167;DHT22;10741;52.272;9.580;2023-09-19T06:28:46;15.30;99.90
21167;DHT22;10741;52.272;9.580;2023-09-19T06:31:12;15.40;99.90
21167;DHT22;10741;52.272;9.580;2023-09-19T06:33:38;15.40;99.90
21167;DHT22;10741;52.272;9.580;2023-09-19T06:36:07;15.40;99.90
21167;DHT22;10741;52.272;9.580;2023-09-19T06:38:33;15.50;99.90
21167;DHT22;10741;52.272;9.580;2023-09-19T06:41:02;15.50;99.90
21167;DHT22;10741;52.272;9.580;2023-09-19T06:43:32;15.50;99.90
21167;DHT22;10741;52.272;9.580;2023-09-19T06:46:02;15.50;99.90
21167;DHT22;10741;52.272;9.580;2023-09-19T06:48:28;15.60;99.90
21167;DHT22;10741;52.272;9.580;2023-09-19T06:50:59;15.60;99.90
21167;DHT22;10741;52.272;9.580;2023-09-19T06:53:31;15.70;99.90
21167;DHT22;10741;52.272;9.580;2023-09-19T06:55:57;15.70;99.90
21167;DHT22;10741;52.272;9.580;2023-09-19T06:58:23;15.70;99.90
21167;DHT22;10741;52.272;9.580;2023-09-19T07:00:49;15.80;99.90
21167;DHT22;10741;52.272;9.580;2023-09-19T07:03:15;15.80;99.90
21167;DHT22;10741;52.272;9.580;2023-09-19T07:05:44;16.00;99.90
21167;DHT22;10741;52.272;9.580;2023-09-19T07:08:10;16.00;99.90
21167;DHT22;10741;52.272;9.580;2023-09-19T07:10:38;16.20;99.90
21167;DHT22;10741;52.272;9.580;2023-09-19T07:13:14;16.30;99.90
21167;DHT22;10741;52.272;9.580;2023-09-19T07:15:42;16.70;99.90
21167;DHT22;10741;52.272;9.580;2023-09-19T07:18:15;17.20;99.90
21167;DHT22;10741;52.272;9.580;2023-09-19T07:20:42;17.70;99.90
21167;DHT22;10741;52.272;9.580;2023-09-19T07:23:21;18.10;99.90
21167;DHT22;10741;52.272;9.580;2023-09-19T07:25:48;18.60;99.90
21167;DHT22;10741;52.272;9.580;2023-09-19T07:28:15;18.50;99.90
21167;DHT22;10741;52.272;9.580;2023-09-19T07:30:41;18.90;99.90
21167;DHT22;10741;52.272;9.580;2023-09-19T07:33:07;19.00;99.90
21167;DHT22;10741;52.272;9.580;2023-09-19T07:35:37;18.70;99.90
21167;DHT22;10741;52.272;9.580;2023-09-19T07:38:05;18.40;99.90
21167;DHT22;10741;52.272;9.580;2023-09-19T07:40:31;18.20;99.90
21167;DHT22;10741;52.272;9.580;2023-09-19T07:42:57;17.90;99.90
21167;DHT22;10741;52.272;9.580;2023-09-19T07:45:33;17.90;99.90
21167;DHT22;10741;52.272;9.580;2023-09-19T07:47:59;17.70;99.90
21167;DHT22;10741;52.272;9.580;2023-09-19T07:50:29;17.70;99.90
21167;DHT22;10741;52.272;9.580;2023-09-19T07:52:55;17.60;99.90
21167;DHT22;10741;52.272;9.580;2023-09-19T07:55:22;17.50;99.90
21167;DHT22;10741;52.272;9.580;2023-09-19T07:57:54;17.30;99.90
21167;DHT22;10741;52.272;9.580;2023-09-19T08:00:20;17.20;99.90
21167;DHT22;10741;52.272;9.580;2023-09-19T08:02:45;17.10;99.90
21167;DHT22;10741;52.272;9.580;2023-09-19T08:05:12;17.10;99.90
21167;DHT22;10741;52.272;9.580;2023-09-19T08:07:43;17.20;99.90
21167;DHT22;10741;52.272;9.580;2023-09-19T08:10:10;17.40;99.90
21167;DHT22;10741;52.272;9.580;2023-09-19T08:12:44;17.50;99.90
21167;DHT22;10741;52.272;9.580;2023-09-19T08:15:18;17.60;99.90
21167;DHT22;10741;52.272;9.580;2023-09-19T08:17:45;17.80;99.90
21167;DHT22;10741;52.272;9.580;2023-09-19T08:20:12;18.30;99.90
21167;DHT22;10741;52.272;9.580;2023-09-19T08:22:51;18.90;99.90
21167;DHT22;10741;52.272;9.580;2023-09-19T08:25:18;19.90;99.90
21167;DHT22;10741;52.272;9.580;2023-09-19T08:27:45;20.10;99.90
21167;DHT22;10741;52.272;9.580;2023-09-19T08:30:15;19.90;99.90
21167;DHT22;10741;52.272;9.580;2023-09-19T08:32:40;20.40;99.90
21167;DHT22;10741;52.272;9.580;2023-09-19T08:35:09;20.50;99.90
21167;DHT22;10741;52.272;9.580;2023-09-19T08:37:35;20.00;99.90
21167;DHT22;10741;52.272;9.580;2023-09-19T08:40:01;19.50;99.90
21167;DHT22;10741;52.272;9.580;2023-09-19T08:42:27;19.20;99.90
21167;DHT22;10741;52.272;9.580;2023-09-19T08:44:53;19.10;99.90
21167;DHT22;10741;52.272;9.580;2023-09-19T08:47:38;19.00;99.90
21167;DHT22;10741;52.272;9.580;2023-09-19T08:50:19;19.00;99.90
21167;DHT22;10741;52.272;9.580;2023-09-19T08:52:47;19.00;99.90
21167;DHT22;10741;52.272;9.580;2023-09-19T08:55:14;18.80;99.90
21167;DHT22;10741;52.272;9.580;2023-09-19T08:57:49;18.40;99.90
21167;DHT22;10741;52.272;9.580;2023-09-19T09:00:16;18.30;99.90
21167;DHT22;10741;52.272;9.580;2023-09-19T09:02:44;18.50;99.90
21167;DHT22;10741;52.272;9.580;2023-09-19T09:05:10;18.60;99.90
21167;DHT22;10741;52.272;9.580;2023-09-19T09:07:37;18.30;99.90
21167;DHT22;10741;52.272;9.580;2023-09-19T09:10:04;18.10;99.90
21167;DHT22;10741;52.272;9.580;2023-09-19T09:12:30;18.00;99.90
21167;DHT22;10741;52.272;9.580;2023-09-19T09:14:56;18.00;99.90
21167;DHT22;10741;52.272;9.580;2023-09-19T09:17:23;18.00;99.90
21167;DHT22;10741;52.272;9.580;2023-09-19T09:19:52;18.00;99.90
21167;DHT22;10741;52.272;9.580;2023-09-19T09:22:18;18.10;99.90
21167;DHT22;10741;52.272;9.580;2023-09-19T09:24:59;18.10;99.90
21167;DHT22;10741;52.272;9.580;2023-09-19T09:27:29;18.10;99.90
21167;DHT22;10741;52.272;9.580;2023-09-19T09:29:55;18.10;99.90
21167;DHT22;10741;52.272;9.580;2023-09-19T09:34:57;18.20;99.90
21167;DHT22;10741;52.272;9.580;2023-09-19T09:37:24;18.10;99.90
21167;DHT22;10741;52.272;9.580;2023-09-19T09:42:36;18.10;99.90
21167;DHT22;10741;52.272;9.580;2023-09-19T09:45:24;18.10;99.90
21167;DHT22;10741;52.272;9.580;2023-09-19T09:47:59;18.10;99.90
21167;DHT22;10741;52.272;9.580;2023-09-19T09:50:46;18.10;99.90
21167;DHT22;10741;52.272;9.580;2023-09-19T09:56:08;18.10;99.90
21167;DHT22;10741;52.272;9.580;2023-09-19T10:01:14;18.20;99.90
21167;DHT22;10741;52.272;9.580;2023-09-19T10:03:42;18.10;99.90
21167;DHT22;10741;52.272;9.580;2023-09-19T10:06:17;18.40;99.90
21167;DHT22;10741;52.272;9.580;2023-09-19T10:09:01;18.50;99.90
21167;DHT22;10741;52.272;9.580;2023-09-19T10:11:44;18.40;99.90
21167;DHT22;10741;52.272;9.580;2023-09-19T10:14:16;18.30;99.90
21167;DHT22;10741;52.272;9.580;2023-09-19T10:16:46;18.30;99.90
21167;DHT22;10741;52.272;9.580;2023-09-19T10:19:20;18.40;99.90
21167;DHT22;10741;52.272;9.580;2023-09-19T10:21:50;18.30;99.90
21167;DHT22;10741;52.272;9.580;2023-09-19T10:24:17;18.10;99.90
21167;DHT22;10741;52.272;9.580;2023-09-19T10:26:45;18.10;99.90
21167;DHT22;10741;52.272;9.580;2023-09-19T10:29:13;18.20;99.90
21167;DHT22;10741;52.272;9.580;2023-09-19T10:31:42;18.30;99.90
21167;DHT22;10741;52.272;9.580;2023-09-19T10:34:14;18.60;99.90
21167;DHT22;10741;52.272;9.580;2023-09-19T10:36:44;18.70;99.90
21167;DHT22;10741;52.272;9.580;2023-09-19T10:39:11;18.80;99.90
21167;DHT22;10741;52.272;9.580;2023-09-19T10:41:39;19.00;99.90
21167;DHT22;10741;52.272;9.580;2023-09-19T10:44:05;19.10;99.90
21167;DHT22;10741;52.272;9.580;2023-09-19T10:46:34;19.30;99.90
21167;DHT22;10741;52.272;9.580;2023-09-19T10:49:01;19.10;99.90
21167;DHT22;10741;52.272;9.580;2023-09-19T10:51:31;19.00;99.90
21167;DHT22;10741;52.272;9.580;2023-09-19T10:54:17;19.20;99.90
21167;DHT22;10741;52.272;9.580;2023-09-19T10:56:47;19.30;99.90
21167;DHT22;10741;52.272;9.580;2023-09-19T10:59:19;19.20;99.90
21167;DHT22;10741;52.272;9.580;2023-09-19T11:01:50;19.10;99.90
21167;DHT22;10741;52.272;9.580;2023-09-19T11:04:35;19.00;99.90
21167;DHT22;10741;52.272;9.580;2023-09-19T11:07:09;19.00;99.90
21167;DHT22;10741;52.272;9.580;2023-09-19T11:12:08;19.30;99.90
21167;DHT22;10741;52.272;9.580;2023-09-19T11:14:39;19.20;99.90
21167;DHT22;10741;52.272;9.580;2023-09-19T11:30:41;19.20;99.90
21167;DHT22;10741;52.272;9.580;2023-09-19T11:33:23;19.30;99.90
21167;DHT22;10741;52.272;9.580;2023-09-19T11:36:11;19.50;99.90
21167;DHT22;10741;52.272;9.580;2023-09-19T11:43:53;19.50;99.90
21167;DHT22;10741;52.272;9.580;2023-09-19T11:46:24;19.40;99.90
21167;DHT22;10741;52.272;9.580;2023-09-19T11:48:51;19.50;99.90
21167;DHT22;10741;52.272;9.580;2023-09-19T11:51:22;19.60;99.90
21167;DHT22;10741;52.272;9.580;2023-09-19T11:53:53;19.80;99.90
21167;DHT22;10741;52.272;9.580;2023-09-19T11:56:21;20.00;99.90
21167;DHT22;10741;52.272;9.580;2023-09-19T11:58:49;20.00;99.90
21167;DHT22;10741;52.272;9.580;2023-09-19T12:01:31;20.10;99.90
21167;DHT22;10741;52.272;9.580;2023-09-19T12:03:59;20.10;99.90
21167;DHT22;10741;52.272;9.580;2023-09-19T12:06:25;20.20;99.90
21167;DHT22;10741;52.272;9.580;2023-09-19T12:08:52;20.50;99.90
21167;DHT22;10741;52.272;9.580;2023-09-19T12:11:23;20.70;99.90
21167;DHT22;10741;52.272;9.580;2023-09-19T12:13:50;20.90;99.90
21167;DHT22;10741;52.272;9.580;2023-09-19T12:16:19;20.90;99.90
21167;DHT22;10741;52.272;9.580;2023-09-19T12:18:50;20.60;99.90
21167;DHT22;10741;52.272;9.580;2023-09-19T12:21:27;20.50;99.90
21167;DHT22;10741;52.272;9.580;2023-09-19T12:24:06;20.40;99.90
21167;DHT22;10741;52.272;9.580;2023-09-19T12:26:40;20.40;99.90
21167;DHT22;10741;52.272;9.580;2023-09-19T12:29:18;20.40;99.90
21167;DHT22;10741;52.272;9.580;2023-09-19T12:31:54;20.20;99.90
21167;DHT22;10741;52.272;9.580;2023-09-19T12:34:30;20.30;99.90
21167;DHT22;10741;52.272;9.580;2023-09-19T12:37:06;20.30;99.90
21167;DHT22;10741;52.272;9.580;2023-09-19T12:39:43;20.50;99.90
21167;DHT22;10741;52.272;9.580;2023-09-19T12:42:17;20.40;99.90
21167;DHT22;10741;52.272;9.580;2023-09-19T12:44:48;20.30;99.90
21167;DHT22;10741;52.272;9.580;2023-09-19T12:47:17;20.10;99.90
21167;DHT22;10741;52.272;9.580;2023-09-19T12:50:14;20.40;99.90
21167;DHT22;10741;52.272;9.580;2023-09-19T12:52:47;20.30;99.90
21167;DHT22;10741;52.272;9.580;2023-09-19T12:55:22;20.30;99.90
21167;DHT22;10741;52.272;9.580;2023-09-19T13:00:35;20.90;99.90
21167;DHT22;10741;52.272;9.580;2023-09-19T13:03:26;21.20;99.90
21167;DHT22;10741;52.272;9.580;2023-09-19T13:05:59;21.80;99.90
21167;DHT22;10741;52.272;9.580;2023-09-19T13:08:28;21.70;99.90
21167;DHT22;10741;52.272;9.580;2023-09-19T13:13:36;21.60;99.90
21167;DHT22;10741;52.272;9.580;2023-09-19T13:16:03;21.90;99.90
21167;DHT22;10741;52.272;9.580;2023-09-19T13:18:42;22.20;99.90
21167;DHT22;10741;52.272;9.580;2023-09-19T13:21:11;22.50;99.90
21167;DHT22;10741;52.272;9.580;2023-09-19T13:23:54;22.90;99.90
21167;DHT22;10741;52.272;9.580;2023-09-19T13:26:28;23.40;99.90
21167;DHT22;10741;52.272;9.580;2023-09-19T13:28:54;23.50;99.90
21167;DHT22;10741;52.272;9.580;2023-09-19T13:31:20;23.80;99.90
21167;DHT22;10741;52.272;9.580;2023-09-19T13:33:48;24.00;99.90
21167;DHT22;10741;52.272;9.580;2023-09-19T13:36:14;23.90;99.90
21167;DHT22;10741;52.272;9.580;2023-09-19T13:38:41;24.50;99.90
21167;DHT22;10741;52.272;9.580;2023-09-19T13:41:09;23.90;99.50
21167;DHT22;10741;52.272;9.580;2023-09-19T13:43:36;23.90;99.90
21167;DHT22;10741;52.272;9.580;2023-09-19T13:46:01;24.00;99.90
21167;DHT22;10741;52.272;9.580;2023-09-19T13:48:27;24.20;99.90
21167;DHT22;10741;52.272;9.580;2023-09-19T13:50:55;24.30;99.90
21167;DHT22;10741;52.272;9.580;2023-09-19T13:53:22;24.50;99.30
21167;DHT22;10741;52.272;9.580;2023-09-19T13:55:48;24.60;99.90
21167;DHT22;10741;52.272;9.580;2023-09-19T13:58:16;24.30;99.00
21167;DHT22;10741;52.272;9.580;2023-09-19T14:00:42;24.60;99.60
21167;DHT22;10741;52.272;9.580;2023-09-19T14:03:08;24.80;99.70
21167;DHT22;10741;52.272;9.580;2023-09-19T14:05:36;25.10;97.60
21167;DHT22;10741;52.272;9.580;2023-09-19T14:08:03;25.00;97.70
21167;DHT22;10741;52.272;9.580;2023-09-19T14:10:29;24.80;98.80
21167;DHT22;10741;52.272;9.580;2023-09-19T14:12:57;24.30;98.10
21167;DHT22;10741;52.272;9.580;2023-09-19T14:15:27;23.90;98.10
21167;DHT22;10741;52.272;9.580;2023-09-19T14:17:57;23.20;99.20
21167;DHT22;10741;52.272;9.580;2023-09-19T14:20:22;23.00;99.90
21167;DHT22;10741;52.272;9.580;2023-09-19T14:22:48;22.70;99.80
21167;DHT22;10741;52.272;9.580;2023-09-19T14:25:14;22.10;99.90
21167;DHT22;10741;52.272;9.580;2023-09-19T14:27:40;21.30;99.90
21167;DHT22;10741;52.272;9.580;2023-09-19T14:30:07;20.90;99.90
21167;DHT22;10741;52.272;9.580;2023-09-19T14:32:34;20.90;99.90
21167;DHT22;10741;52.272;9.580;2023-09-19T14:35:02;20.80;99.90
21167;DHT22;10741;52.272;9.580;2023-09-19T14:37:27;20.80;99.90
21167;DHT22;10741;52.272;9.580;2023-09-19T14:39:54;20.80;99.90
21167;DHT22;10741;52.272;9.580;2023-09-19T14:42:20;20.80;99.90
21167;DHT22;10741;52.272;9.580;2023-09-19T14:44:45;20.60;99.90
21167;DHT22;10741;52.272;9.580;2023-09-19T14:47:13;20.40;99.90
21167;DHT22;10741;52.272;9.580;2023-09-19T14:49:39;20.20;99.90
21167;DHT22;10741;52.272;9.580;2023-09-19T14:52:09;20.10;99.90
21167;DHT22;10741;52.272;9.580;2023-09-19T14:54:35;20.00;99.90
21167;DHT22;10741;52.272;9.580;2023-09-19T14:57:03;20.00;99.90
21167;DHT22;10741;52.272;9.580;2023-09-19T14:59:33;20.30;99.90
21167;DHT22;10741;52.272;9.580;2023-09-19T15:01:59;20.60;99.90
21167;DHT22;10741;52.272;9.580;2023-09-19T15:04:27;20.90;99.90
21167;DHT22;10741;52.272;9.580;2023-09-19T15:06:53;21.10;99.90
21167;DHT22;10741;52.272;9.580;2023-09-19T15:09:21;21.20;99.90
21167;DHT22;10741;52.272;9.580;2023-09-19T15:11:55;21.40;99.90
21167;DHT22;10741;52.272;9.580;2023-09-19T15:14:22;21.50;99.90
21167;DHT22;10741;52.272;9.580;2023-09-19T15:16:48;21.50;99.90
21167;DHT22;10741;52.272;9.580;2023-09-19T15:19:14;21.50;99.90
21167;DHT22;10741;52.272;9.580;2023-09-19T15:21:41;21.50;99.90
21167;DHT22;10741;52.272;9.580;2023-09-19T15:24:07;21.30;99.90
21167;DHT22;10741;52.272;9.580;2023-09-19T15:26:36;21.10;99.90
21167;DHT22;10741;52.272;9.580;2023-09-19T15:29:06;21.00;99.90
21167;DHT22;10741;52.272;9.580;2023-09-19T15:31:33;21.10;99.90
21167;DHT22;10741;52.272;9.580;2023-09-19T15:33:59;21.00;99.90
21167;DHT22;10741;52.272;9.580;2023-09-19T15:36:24;21.00;99.90
21167;DHT22;10741;52.272;9.580;2023-09-19T15:39:03;20.80;99.90
21167;DHT22;10741;52.272;9.580;2023-09-19T15:41:31;20.60;99.90
21167;DHT22;10741;52.272;9.580;2023-09-19T15:43:59;20.60;99.90
21167;DHT22;10741;52.272;9.580;2023-09-19T15:46:27;20.40;99.90
21167;DHT22;10741;52.272;9.580;2023-09-19T15:48:53;20.30;99.90
21167;DHT22;10741;52.272;9.580;2023-09-19T15:51:19;20.10;99.90
21167;DHT22;10741;52.272;9.580;2023-09-19T15:53:47;20.00;99.90
21167;DHT22;10741;52.272;9.580;2023-09-19T15:56:14;19.90;99.90
21167;DHT22;10741;52.272;9.580;2023-09-19T15:58:47;19.80;99.90
21167;DHT22;10741;52.272;9.580;2023-09-19T16:01:14;19.70;99.90
21167;DHT22;10741;52.272;9.580;2023-09-19T16:03:45;19.70;99.90
21167;DHT22;10741;52.272;9.580;2023-09-19T16:06:16;19.70;99.90
21167;DHT22;10741;52.272;9.580;2023-09-19T16:08:47;19.70;99.90
21167;DHT22;10741;52.272;9.580;2023-09-19T16:11:13;19.60;99.90
21167;DHT22;10741;52.272;9.580;2023-09-19T16:13:40;19.60;99.90
21167;DHT22;10741;52.272;9.580;2023-09-19T16:16:11;19.60;99.90
21167;DHT22;10741;52.272;9.580;2023-09-19T16:18:39;19.60;99.90
21167;DHT22;10741;52.272;9.580;2023-09-19T16:21:05;19.60;99.90
21167;DHT22;10741;52.272;9.580;2023-09-19T16:23:33;19.50;99.90
21167;DHT22;10741;52.272;9.580;2023-09-19T16:26:04;19.40;99.90
21167;DHT22;10741;52.272;9.580;2023-09-19T16:28:32;19.30;99.90
21167;DHT22;10741;52.272;9.580;2023-09-19T16:30:58;19.20;99.90
21167;DHT22;10741;52.272;9.580;2023-09-19T16:33:25;19.30;99.90
21167;DHT22;10741;52.272;9.580;2023-09-19T16:35:52;19.30;99.90